Time;durP1;ratioP1;P1;durP2;ratioP2;P2;SDS_P1;SDS_P2;PMS_P1;PMS_P2;Temp;Humidity;BMP_temperature;BMP_pressure;BME280_temperature;BME280_humidity;BME280_pressure;Samples;Min_cycle;Max_cycle;Signal;HPM_P1;HPM_P2
2024/01/18 00:01:55;;;;;;;21.60;17.17;;;0.40;1.00;;;;;;5110864;28;20252;-79
2024/01/18 00:04:24;;;;;;;26.92;16.85;;;0.40;1.00;;;;;;5112757;28;20259;-72
2024/01/18 00:06:52;;;;;;;23.33;18.27;;;0.40;1.00;;;;;;5114082;28;20233;-72
2024/01/18 00:09:19;;;;;;;20.65;17.08;;;0.40;1.00;;;;;;5113945;28;20249;-77
2024/01/18 00:11:46;;;;;;;23.58;16.52;;;0.40;1.00;;;;;;5110739;28;20232;-74
2024/01/18 00:14:13;;;;;;;21.25;17.13;;;0.40;1.00;;;;;;5113713;28;20273;-72
2024/01/18 00:16:40;;;;;;;22.48;17.30;;;0.40;1.00;;;;;;5112341;28;20290;-73
2024/01/18 00:19:11;;;;;;;22.58;19.08;;;0.40;1.00;;;;;;5107370;28;20231;-74
2024/01/18 00:21:40;;;;;;;24.33;16.88;;;0.40;1.00;;;;;;5110870;27;20246;-71
2024/01/18 00:24:07;;;;;;;24.45;17.02;;;0.30;1.00;;;;;;5110031;28;20699;-71
2024/01/18 00:26:34;;;;;;;23.25;17.35;;;0.40;1.00;;;;;;5112238;27;20275;-75
2024/01/18 00:29:01;;;;;;;25.73;17.85;;;0.40;1.00;;;;;;5107114;28;20243;-71
2024/01/18 00:31:28;;;;;;;21.80;17.05;;;0.50;1.00;;;;;;5107902;28;20304;-72
2024/01/18 00:33:57;;;;;;;19.15;15.50;;;0.60;1.00;;;;;;5111505;28;20246;-75
2024/01/18 00:36:25;;;;;;;23.15;17.58;;;0.60;1.00;;;;;;5109809;28;21004;-75
2024/01/18 00:38:53;;;;;;;22.42;16.33;;;0.70;1.00;;;;;;5107817;28;20289;-72
2024/01/18 00:41:21;;;;;;;22.20;16.92;;;0.70;1.00;;;;;;5107162;28;20235;-75
2024/01/18 00:43:48;;;;;;;21.83;17.38;;;0.70;1.00;;;;;;5110052;28;20239;-73
2024/01/18 00:46:18;;;;;;;24.15;17.30;;;0.70;1.00;;;;;;5109985;28;20772;-72
2024/01/18 00:48:45;;;;;;;26.50;16.75;;;0.80;1.00;;;;;;5108233;27;20595;-72
2024/01/18 00:51:14;;;;;;;22.88;16.80;;;0.70;1.00;;;;;;5111180;28;20239;-72
2024/01/18 00:53:43;;;;;;;21.40;16.58;;;0.60;1.00;;;;;;5108943;28;21133;-72
2024/01/18 00:56:11;;;;;;;20.00;16.90;;;0.60;1.00;;;;;;5110997;28;20238;-75
2024/01/18 00:58:39;;;;;;;23.15;17.08;;;0.50;1.00;;;;;;5109843;28;21090;-73
2024/01/18 01:01:06;;;;;;;20.58;16.67;;;0.50;1.00;;;;;;5109931;28;20746;-72
2024/01/18 01:03:33;;;;;;;20.13;16.33;;;0.50;1.00;;;;;;5109698;27;20239;-72
2024/01/18 01:06:00;;;;;;;27.42;18.20;;;0.50;1.00;;;;;;5091891;28;20239;-71
2024/01/18 01:08:28;;;;;;;26.38;16.73;;;0.50;1.00;;;;;;5103219;27;20236;-75
2024/01/18 01:10:55;;;;;;;22.48;17.30;;;0.50;1.00;;;;;;5105219;28;20249;-73
2024/01/18 01:13:23;;;;;;;21.27;17.08;;;0.50;1.00;;;;;;5108647;27;20258;-74
2024/01/18 01:15:51;;;;;;;21.95;15.73;;;0.50;1.00;;;;;;5105004;28;20255;-72
2024/01/18 01:18:18;;;;;;;18.48;16.20;;;0.50;1.00;;;;;;5109411;28;20667;-71
2024/01/18 01:20:45;;;;;;;24.40;17.80;;;0.50;1.00;;;;;;5110297;28;20226;-74
2024/01/18 01:23:12;;;;;;;19.95;16.00;;;0.40;1.00;;;;;;5106441;28;20323;-71
2024/01/18 01:25:39;;;;;;;22.40;16.75;;;0.40;1.00;;;;;;5106691;28;20227;-76
2024/01/18 01:28:07;;;;;;;22.15;16.60;;;0.30;1.00;;;;;;5109254;27;20715;-76
2024/01/18 01:30:35;;;;;;;21.65;17.55;;;0.20;1.00;;;;;;5105056;28;20762;-73
2024/01/18 01:33:02;;;;;;;19.98;16.83;;;0.30;1.00;;;;;;5107363;28;20438;-72
2024/01/18 01:35:29;;;;;;;25.40;18.02;;;0.30;1.00;;;;;;5107692;27;21008;-73
2024/01/18 01:37:59;;;;;;;21.42;16.15;;;0.30;1.00;;;;;;5108531;28;20239;-73
2024/01/18 01:40:26;;;;;;;19.67;16.38;;;0.20;1.00;;;;;;5107739;28;21104;-71
2024/01/18 01:42:53;;;;;;;18.25;16.17;;;0.30;1.00;;;;;;5107159;28;20247;-73
2024/01/18 01:45:20;;;;;;;31.25;19.25;;;0.30;1.00;;;;;;5110523;28;20240;-75
2024/01/18 01:47:48;;;;;;;20.92;15.80;;;0.20;1.00;;;;;;5108074;27;20239;-75
2024/01/18 01:50:16;;;;;;;21.55;17.45;;;0.20;1.00;;;;;;5101670;27;20346;-73
2024/01/18 01:52:44;;;;;;;19.77;17.17;;;0.10;1.00;;;;;;5104206;28;20348;-72
2024/01/18 01:55:12;;;;;;;21.70;17.70;;;0.10;1.00;;;;;;5109332;28;20235;-72
2024/01/18 01:57:42;;;;;;;18.83;15.55;;;0.10;1.00;;;;;;5109334;28;20946;-74
2024/01/18 02:00:12;;;;;;;20.80;15.05;;;0.10;1.00;;;;;;5105949;28;20247;-75
2024/01/18 02:02:41;;;;;;;24.70;16.52;;;0.20;1.00;;;;;;5109822;27;20236;-73
2024/01/18 02:05:10;;;;;;;18.27;16.20;;;0.20;1.00;;;;;;5106417;28;20234;-72
2024/01/18 02:07:37;;;;;;;17.10;15.30;;;0.10;1.00;;;;;;5106887;27;20235;-76
2024/01/18 02:10:05;;;;;;;22.60;15.25;;;0.20;1.00;;;;;;5105137;28;20240;-78
2024/01/18 02:12:33;;;;;;;20.15;15.73;;;0.20;1.00;;;;;;5107440;28;20239;-81
2024/01/18 02:15:00;;;;;;;22.92;16.75;;;0.30;1.00;;;;;;5106769;28;20319;-78
2024/01/18 02:17:27;;;;;;;19.58;14.45;;;0.30;1.00;;;;;;5110075;27;20335;-78
2024/01/18 02:19:54;;;;;;;18.48;15.50;;;0.40;1.00;;;;;;5111549;28;20353;-79
2024/01/18 02:22:27;;;;;;;17.55;15.70;;;0.30;1.00;;;;;;5108126;28;20234;-81
2024/01/18 02:24:59;;;;;;;18.05;15.55;;;0.30;1.00;;;;;;5102795;27;20934;-78
2024/01/18 02:27:28;;;;;;;18.85;15.32;;;0.30;1.00;;;;;;5108974;28;20597;-81
2024/01/18 02:29:55;;;;;;;20.17;14.40;;;0.40;1.00;;;;;;5106579;28;22252;-75
2024/01/18 02:32:22;;;;;;;17.73;14.32;;;0.40;1.00;;;;;;5109175;28;20266;-80
2024/01/18 02:34:49;;;;;;;16.65;14.98;;;0.40;1.00;;;;;;5112808;27;20489;-79
2024/01/18 02:37:16;;;;;;;19.58;15.27;;;0.40;1.00;;;;;;5096328;27;20236;-78
2024/01/18 02:39:43;;;;;;;16.27;14.48;;;0.40;1.00;;;;;;5109312;28;20238;-77
2024/01/18 02:42:11;;;;;;;22.83;15.15;;;0.40;1.00;;;;;;5109578;28;20444;-77
2024/01/18 02:44:40;;;;;;;20.50;15.50;;;0.40;1.00;;;;;;5110863;27;20352;-78
2024/01/18 02:47:06;;;;;;;22.08;15.90;;;0.50;1.00;;;;;;5104261;28;20236;-79
2024/01/18 02:49:37;;;;;;;20.95;16.27;;;0.50;1.00;;;;;;5109183;28;20231;-78
2024/01/18 02:52:05;;;;;;;19.02;15.30;;;0.50;1.00;;;;;;5105802;28;20330;-78
2024/01/18 02:54:32;;;;;;;21.60;16.05;;;0.50;1.00;;;;;;5108946;28;20306;-79
2024/01/18 02:56:59;;;;;;;20.17;16.40;;;0.50;1.00;;;;;;5108432;28;20231;-79
2024/01/18 02:59:26;;;;;;;21.58;16.05;;;0.60;1.00;;;;;;5084828;27;20232;-80
2024/01/18 03:01:54;;;;;;;20.00;14.82;;;0.60;1.00;;;;;;5107999;27;20243;-75
2024/01/18 03:04:21;;;;;;;20.40;16.35;;;0.50;1.00;;;;;;5106159;28;20301;-79
2024/01/18 03:06:48;;;;;;;22.35;16.02;;;0.50;1.00;;;;;;5108588;28;20325;-80
2024/01/18 03:09:15;;;;;;;19.88;16.02;;;0.50;1.00;;;;;;5113423;27;20300;-79
2024/01/18 03:11:42;;;;;;;20.38;16.40;;;0.50;1.00;;;;;;5114560;27;20714;-80
2024/01/18 03:14:10;;;;;;;20.02;16.48;;;0.40;1.00;;;;;;5106807;28;20742;-80
2024/01/18 03:16:42;;;;;;;19.90;16.17;;;0.50;1.00;;;;;;5112468;28;20706;-75
2024/01/18 03:19:10;;;;;;;18.08;15.55;;;0.50;1.00;;;;;;5110575;28;20249;-78
2024/01/18 03:21:37;;;;;;;18.67;16.63;;;0.40;1.00;;;;;;5111664;28;20738;-74
2024/01/18 03:24:05;;;;;;;18.15;16.30;;;0.50;1.00;;;;;;5108841;28;20328;-72
2024/01/18 03:26:32;;;;;;;19.75;16.60;;;0.40;1.00;;;;;;5111951;28;20254;-72
2024/01/18 03:28:59;;;;;;;21.05;16.35;;;0.40;1.00;;;;;;5109258;28;20243;-73
2024/01/18 03:31:29;;;;;;;20.05;15.93;;;0.30;1.00;;;;;;5112289;28;20239;-76
2024/01/18 03:33:59;;;;;;;22.10;17.02;;;0.30;1.00;;;;;;5108461;27;20246;-71
2024/01/18 03:36:27;;;;;;;21.42;16.05;;;0.40;1.00;;;;;;5112290;28;20292;-75
2024/01/18 03:38:54;;;;;;;20.92;15.70;;;0.30;1.00;;;;;;5102780;28;20333;-73
2024/01/18 03:41:21;;;;;;;18.55;16.10;;;0.30;1.00;;;;;;5110295;28;20291;-73
2024/01/18 03:43:48;;;;;;;22.63;18.42;;;0.40;1.00;;;;;;5105893;28;20300;-73
2024/01/18 03:46:15;;;;;;;20.50;17.52;;;0.40;1.00;;;;;;5108801;28;20743;-73
2024/01/18 03:48:43;;;;;;;18.85;15.70;;;0.40;1.00;;;;;;5108234;28;20327;-73
2024/01/18 03:51:11;;;;;;;18.48;16.15;;;0.30;1.00;;;;;;5109249;28;20767;-75
2024/01/18 03:53:43;;;;;;;22.95;18.13;;;0.30;1.00;;;;;;5109864;28;20232;-72
2024/01/18 03:56:11;;;;;;;22.55;18.40;;;0.20;1.00;;;;;;5109979;28;20238;-72
2024/01/18 03:58:39;;;;;;;24.05;17.17;;;0.20;1.00;;;;;;5111645;28;20330;-73
2024/01/18 04:01:07;;;;;;;21.25;17.52;;;0.10;1.00;;;;;;5109222;28;20245;-72
2024/01/18 04:03:33;;;;;;;21.33;17.90;;;0.20;1.00;;;;;;5106117;28;20231;-73
2024/01/18 04:06:00;;;;;;;20.35;16.08;;;0.10;1.00;;;;;;5107202;28;21085;-72
2024/01/18 04:08:27;;;;;;;21.92;17.00;;;0.10;1.00;;;;;;5110570;28;20245;-73
2024/01/18 04:10:56;;;;;;;22.95;17.05;;;0.10;1.00;;;;;;5111090;27;20231;-73
2024/01/18 04:13:23;;;;;;;24.10;17.98;;;0.10;1.00;;;;;;5108124;28;20375;-73
2024/01/18 04:15:50;;;;;;;20.35;17.00;;;0.10;1.00;;;;;;5109468;28;20232;-75
2024/01/18 04:18:17;;;;;;;20.95;17.85;;;0.10;1.00;;;;;;5110291;28;20688;-71
2024/01/18 04:20:44;;;;;;;26.98;18.02;;;0.20;1.00;;;;;;5109332;28;20361;-76
2024/01/18 04:23:12;;;;;;;22.10;16.95;;;0.20;1.00;;;;;;5103726;28;20745;-74
2024/01/18 04:25:39;;;;;;;24.70;17.95;;;0.20;1.00;;;;;;5108724;28;20274;-73
2024/01/18 04:28:07;;;;;;;23.52;18.65;;;0.20;1.00;;;;;;5088586;28;21100;-77
2024/01/18 04:30:35;;;;;;;18.40;16.45;;;0.20;1.00;;;;;;5110077;28;20266;-82
2024/01/18 04:33:02;;;;;;;22.88;18.80;;;0.20;1.00;;;;;;5117476;28;20219;-80
2024/01/18 04:35:29;;;;;;;36.60;26.00;;;0.10;1.00;;;;;;5114081;27;20285;-81
2024/01/18 04:37:56;;;;;;;23.63;18.75;;;0.10;1.00;;;;;;5116326;27;21082;-79
2024/01/18 04:40:23;;;;;;;24.13;19.70;;;0.00;1.00;;;;;;5117462;27;20238;-83
2024/01/18 04:42:50;;;;;;;22.33;18.15;;;0.00;1.00;;;;;;5115680;28;20303;-78
2024/01/18 04:45:19;;;;;;;24.65;16.75;;;0.10;1.00;;;;;;5116543;28;20215;-78
2024/01/18 04:47:46;;;;;;;23.02;19.23;;;0.10;1.00;;;;;;5097091;28;20894;-81
2024/01/18 04:50:13;;;;;;;21.42;18.67;;;0.10;1.00;;;;;;5111254;27;20231;-76
2024/01/18 04:52:41;;;;;;;22.10;17.88;;;0.20;1.00;;;;;;5093519;28;20263;-82
2024/01/18 04:55:09;;;;;;;22.50;19.17;;;0.20;1.00;;;;;;5114283;27;20227;-79
2024/01/18 04:57:36;;;;;;;22.50;17.50;;;0.20;1.00;;;;;;5112939;28;20777;-82
2024/01/18 05:00:09;;;;;;;22.27;17.80;;;0.30;1.00;;;;;;5117460;28;20235;-81
2024/01/18 05:02:38;;;;;;;26.70;18.65;;;0.40;1.00;;;;;;5111507;28;20223;-83
2024/01/18 05:05:08;;;;;;;24.95;19.27;;;0.30;1.00;;;;;;5109822;27;20335;-82
2024/01/18 05:07:35;;;;;;;22.05;18.40;;;0.30;1.00;;;;;;5109295;27;20242;-78
2024/01/18 05:10:04;;;;;;;24.30;18.60;;;0.40;1.00;;;;;;5108738;27;20303;-82
2024/01/18 05:12:31;;;;;;;28.25;18.95;;;0.40;1.00;;;;;;5112456;27;20335;-79
2024/01/18 05:14:58;;;;;;;24.02;19.40;;;0.40;1.00;;;;;;5116549;27;20270;-82
2024/01/18 05:17:34;;;;;;;25.77;19.30;;;0.40;1.00;;;;;;5112253;27;20792;-77
2024/01/18 05:20:04;;;;;;;30.00;21.42;;;0.40;1.00;;;;;;5107520;27;20245;-77
2024/01/18 05:22:31;;;;;;;26.65;18.80;;;0.40;1.00;;;;;;5106217;27;20255;-77
2024/01/18 05:24:59;;;;;;;23.67;18.48;;;0.40;1.00;;;;;;5107373;28;20263;-79
2024/01/18 05:27:27;;;;;;;22.35;17.83;;;0.50;1.00;;;;;;5107818;27;20414;-76
2024/01/18 05:29:54;;;;;;;25.83;20.98;;;0.50;1.00;;;;;;5108427;27;20242;-76
2024/01/18 05:32:21;;;;;;;26.98;19.10;;;0.60;1.00;;;;;;5110864;27;20220;-75
2024/01/18 05:34:48;;;;;;;23.10;19.20;;;0.60;1.00;;;;;;5109335;27;20363;-75
2024/01/18 05:37:17;;;;;;;24.17;19.42;;;0.50;1.00;;;;;;5113116;27;20235;-75
2024/01/18 05:39:44;;;;;;;22.42;18.50;;;0.50;1.00;;;;;;5102101;27;20247;-73
2024/01/18 05:42:11;;;;;;;21.85;18.25;;;0.60;1.00;;;;;;5105375;27;20412;-75
2024/01/18 05:44:38;;;;;;;39.70;30.23;;;0.50;1.00;;;;;;5108685;27;20249;-74
2024/01/18 05:47:05;;;;;;;27.05;22.90;;;0.50;1.00;;;;;;5074526;28;20296;-76
2024/01/18 05:49:32;;;;;;;25.08;20.17;;;0.50;1.00;;;;;;5105520;27;20326;-73
2024/01/18 05:51:59;;;;;;;24.00;20.73;;;0.50;1.00;;;;;;5107507;27;20773;-75
2024/01/18 05:54:28;;;;;;;25.77;20.75;;;0.50;1.00;;;;;;5106164;27;20304;-74
2024/01/18 05:56:56;;;;;;;28.27;22.15;;;0.50;1.00;;;;;;5107007;27;20301;-75
2024/01/18 05:59:23;;;;;;;23.10;18.98;;;0.50;1.00;;;;;;5106858;27;20282;-75
2024/01/18 06:01:50;;;;;;;30.15;21.38;;;0.50;1.00;;;;;;5107114;27;20302;-73
2024/01/18 06:04:17;;;;;;;28.20;20.48;;;0.50;1.00;;;;;;5107809;27;20239;-76
2024/01/18 06:06:44;;;;;;;26.33;20.83;;;0.50;1.00;;;;;;5107601;27;20332;-76
2024/01/18 06:09:14;;;;;;;26.92;19.85;;;0.50;1.00;;;;;;5106223;28;20308;-76
2024/01/18 06:11:42;;;;;;;29.75;25.15;;;0.40;1.00;;;;;;5107777;28;20239;-74
2024/01/18 06:14:09;;;;;;;27.98;20.15;;;0.40;1.00;;;;;;5097522;27;20235;-72
2024/01/18 06:16:36;;;;;;;35.50;24.00;;;0.30;1.00;;;;;;5103444;27;20267;-75
2024/01/18 06:19:03;;;;;;;24.67;21.30;;;0.40;1.00;;;;;;5105486;28;20714;-75
2024/01/18 06:21:30;;;;;;;29.05;21.83;;;0.40;1.00;;;;;;5106233;28;20338;-76
2024/01/18 06:23:57;;;;;;;27.58;21.95;;;0.40;1.00;;;;;;5108194;27;20245;-73
2024/01/18 06:26:24;;;;;;;28.33;21.35;;;0.40;1.00;;;;;;5107034;28;20719;-73
2024/01/18 06:28:53;;;;;;;25.95;22.10;;;0.50;1.00;;;;;;5109250;28;20239;-73
2024/01/18 06:31:26;;;;;;;27.40;20.67;;;0.50;1.00;;;;;;5101412;28;20641;-74
2024/01/18 06:33:53;;;;;;;28.85;21.20;;;0.50;1.00;;;;;;5105338;28;20239;-75
2024/01/18 06:36:22;;;;;;;27.75;22.25;;;0.50;1.00;;;;;;5106464;28;20243;-73
2024/01/18 06:38:50;;;;;;;31.50;24.42;;;0.60;1.00;;;;;;5107119;28;21121;-75
2024/01/18 06:41:19;;;;;;;24.23;19.77;;;0.60;1.00;;;;;;5105246;27;20322;-74
2024/01/18 06:43:48;;;;;;;32.38;22.33;;;0.70;1.00;;;;;;5110284;27;20235;-74
2024/01/18 06:46:17;;;;;;;26.67;21.25;;;0.70;1.00;;;;;;5105544;28;20435;-74
2024/01/18 06:48:45;;;;;;;26.83;23.40;;;0.70;1.00;;;;;;5109738;27;20285;-75
2024/01/18 06:51:15;;;;;;;24.75;21.33;;;0.70;1.00;;;;;;5109435;27;20732;-77
2024/01/18 06:53:42;;;;;;;28.38;21.42;;;0.70;1.00;;;;;;5112523;27;20243;-77
2024/01/18 06:56:12;;;;;;;25.40;20.13;;;0.70;1.00;;;;;;5108609;27;20290;-75
2024/01/18 06:58:39;;;;;;;29.58;22.90;;;0.70;1.00;;;;;;5107900;27;20246;-74
2024/01/18 07:01:06;;;;;;;30.90;22.05;;;0.60;1.00;;;;;;5107433;27;20235;-76
2024/01/18 07:03:35;;;;;;;28.65;20.52;;;0.60;1.00;;;;;;5110547;27;20625;-75
2024/01/18 07:06:04;;;;;;;36.92;23.30;;;0.50;1.00;;;;;;5097457;27;20248;-74
2024/01/18 07:08:31;;;;;;;27.92;20.65;;;0.40;1.00;;;;;;5106869;27;21311;-78
2024/01/18 07:10:58;;;;;;;29.55;22.00;;;0.40;1.00;;;;;;5109335;27;20278;-73
2024/01/18 07:13:28;;;;;;;31.15;20.50;;;0.40;1.00;;;;;;5109522;27;20236;-76
2024/01/18 07:15:55;;;;;;;36.92;22.98;;;0.30;1.00;;;;;;5105213;28;20357;-75
2024/01/18 07:18:22;;;;;;;31.38;22.75;;;0.30;1.00;;;;;;5106313;27;20256;-75
2024/01/18 07:20:51;;;;;;;29.45;22.55;;;0.30;1.00;;;;;;5108445;27;20242;-75
2024/01/18 07:23:18;;;;;;;33.75;23.67;;;0.30;1.00;;;;;;5104633;28;20245;-76
2024/01/18 07:25:45;;;;;;;30.92;22.95;;;0.30;1.00;;;;;;5104452;27;20231;-77
2024/01/18 07:28:12;;;;;;;27.67;21.52;;;0.30;1.00;;;;;;5112393;27;20286;-74
2024/01/18 07:30:41;;;;;;;27.38;21.55;;;0.30;1.00;;;;;;5108637;28;20247;-78
2024/01/18 07:33:08;;;;;;;28.02;21.50;;;0.30;1.00;;;;;;5105949;27;20272;-75
2024/01/18 07:35:35;;;;;;;27.02;20.45;;;0.30;1.00;;;;;;5104660;28;20331;-75
2024/01/18 07:38:05;;;;;;;31.48;28.20;;;0.30;1.00;;;;;;5110036;27;20313;-77
2024/01/18 07:40:33;;;;;;;28.77;23.70;;;0.30;1.00;;;;;;5104825;28;20819;-75
2024/01/18 07:43:02;;;;;;;30.42;23.90;;;0.30;1.00;;;;;;5089426;28;20772;-76
2024/01/18 07:45:29;;;;;;;26.77;22.48;;;0.30;1.00;;;;;;5110143;27;20979;-77
2024/01/18 07:47:56;;;;;;;33.42;23.05;;;0.20;1.00;;;;;;5080124;28;20247;-74
2024/01/18 07:50:23;;;;;;;29.27;24.35;;;0.20;1.00;;;;;;5113437;28;20239;-76
2024/01/18 07:52:50;;;;;;;30.92;23.92;;;0.20;1.00;;;;;;5092864;28;20909;-75
2024/01/18 07:55:18;;;;;;;36.67;24.73;;;0.30;1.00;;;;;;5112544;28;21101;-76
2024/01/18 07:57:45;;;;;;;30.73;23.10;;;0.20;1.00;;;;;;5109414;28;20326;-74
2024/01/18 08:00:14;;;;;;;36.67;25.83;;;0.30;1.00;;;;;;5108341;28;20269;-75
2024/01/18 08:02:41;;;;;;;33.55;23.55;;;0.30;1.00;;;;;;5106020;27;20346;-74
2024/01/18 08:05:08;;;;;;;33.88;25.20;;;0.40;1.00;;;;;;5103455;28;20784;-74
2024/01/18 08:07:35;;;;;;;37.58;23.95;;;0.40;1.00;;;;;;5108524;27;20251;-76
2024/01/18 08:10:02;;;;;;;31.83;22.80;;;0.50;1.00;;;;;;5107766;27;20318;-79
2024/01/18 08:12:30;;;;;;;34.45;23.40;;;0.50;1.00;;;;;;5108866;27;20236;-74
2024/01/18 08:14:57;;;;;;;31.00;23.13;;;0.50;1.00;;;;;;5110714;27;20259;-73
2024/01/18 08:17:25;;;;;;;27.05;23.38;;;0.60;1.00;;;;;;5110645;27;20232;-75
2024/01/18 08:19:52;;;;;;;30.63;22.88;;;0.70;1.00;;;;;;5107868;28;20235;-74
2024/01/18 08:22:19;;;;;;;33.83;24.52;;;0.70;1.00;;;;;;5107447;28;20236;-74
2024/01/18 08:24:47;;;;;;;31.63;23.48;;;0.70;1.00;;;;;;5108056;27;20263;-74
2024/01/18 08:27:14;;;;;;;32.13;22.30;;;0.80;1.00;;;;;;5110641;27;20278;-74
2024/01/18 08:29:42;;;;;;;30.30;22.95;;;0.90;1.00;;;;;;5112930;27;20235;-74
2024/01/18 08:32:09;;;;;;;29.73;23.73;;;1.00;1.00;;;;;;5113730;27;20235;-75
2024/01/18 08:34:36;;;;;;;29.85;24.02;;;1.10;1.00;;;;;;5111562;27;20231;-81
2024/01/18 08:37:04;;;;;;;27.65;23.50;;;1.20;1.00;;;;;;5108753;27;20235;-74
2024/01/18 08:39:31;;;;;;;34.72;28.10;;;1.30;1.00;;;;;;5110415;27;20313;-74
2024/01/18 08:41:59;;;;;;;26.92;23.48;;;1.40;1.00;;;;;;5106614;27;20243;-74
2024/01/18 08:44:27;;;;;;;31.35;24.45;;;1.60;1.00;;;;;;5105361;27;20242;-74
2024/01/18 08:46:55;;;;;;;28.75;22.95;;;1.70;1.00;;;;;;5103914;28;20708;-74
2024/01/18 08:49:24;;;;;;;27.85;24.33;;;1.70;1.00;;;;;;5109168;27;20235;-75
2024/01/18 08:51:52;;;;;;;29.20;22.75;;;1.60;1.00;;;;;;5108796;27;20650;-75
2024/01/18 08:54:21;;;;;;;32.47;25.55;;;1.50;1.00;;;;;;5109251;27;20239;-73
2024/01/18 08:59:31;;;;;;;33.15;25.20;;;1.60;1.00;;;;;;5110421;27;20238;-72
2024/01/18 09:01:59;;;;;;;32.17;24.60;;;1.60;1.00;;;;;;5111326;27;20707;-73
2024/01/18 09:04:27;;;;;;;30.88;25.30;;;1.60;1.00;;;;;;5087159;28;21088;-75
2024/01/18 09:06:55;;;;;;;31.90;24.92;;;1.50;1.00;;;;;;5111393;27;20310;-72
2024/01/18 09:09:22;;;;;;;30.30;25.02;;;1.50;1.00;;;;;;5106524;27;20338;-77
2024/01/18 09:11:49;;;;;;;34.33;26.35;;;1.70;1.00;;;;;;5106735;27;20949;-75
2024/01/18 09:14:16;;;;;;;34.38;24.00;;;1.80;1.00;;;;;;5107920;27;20235;-76
2024/01/18 09:16:43;;;;;;;35.17;26.10;;;1.90;1.00;;;;;;5108394;28;20725;-75
2024/01/18 09:19:12;;;;;;;33.00;26.92;;;2.10;1.00;;;;;;5108150;27;20267;-75
2024/01/18 09:21:42;;;;;;;28.92;25.92;;;2.10;1.00;;;;;;5106217;27;21129;-75
2024/01/18 09:24:09;;;;;;;34.47;25.40;;;2.20;1.00;;;;;;5095302;28;20259;-76
2024/01/18 09:26:36;;;;;;;32.75;25.77;;;2.10;1.00;;;;;;5091403;28;20266;-75
2024/01/18 09:29:03;;;;;;;33.63;26.30;;;2.10;1.00;;;;;;5090110;28;20432;-77
2024/01/18 09:31:30;;;;;;;36.53;29.05;;;2.20;1.00;;;;;;5086364;28;20231;-76
2024/01/18 09:33:58;;;;;;;31.08;25.27;;;2.30;1.00;;;;;;5086223;28;20267;-75
2024/01/18 09:36:26;;;;;;;29.42;23.23;;;2.40;1.00;;;;;;5087780;28;20239;-75
2024/01/18 09:38:53;;;;;;;30.63;24.55;;;2.40;1.00;;;;;;5088870;28;20253;-76
2024/01/18 09:41:20;;;;;;;29.73;22.48;;;2.30;1.00;;;;;;5084626;28;20319;-74
2024/01/18 09:43:54;;;;;;;32.60;24.55;;;2.20;1.00;;;;;;5086398;28;20339;-75
2024/01/18 09:46:23;;;;;;;32.15;23.27;;;2.20;1.00;;;;;;5090563;28;20236;-75
2024/01/18 09:48:50;;;;;;;30.80;24.15;;;2.10;1.00;;;;;;5089277;28;20250;-74
2024/01/18 09:51:19;;;;;;;28.73;24.63;;;2.20;1.00;;;;;;5085854;28;20298;-75
2024/01/18 09:53:54;;;;;;;32.55;24.85;;;2.20;1.00;;;;;;5089717;28;21103;-74
2024/01/18 09:56:24;;;;;;;29.50;23.75;;;2.20;1.00;;;;;;5090700;28;20235;-74
2024/01/18 09:58:52;;;;;;;33.20;23.60;;;2.30;1.00;;;;;;5089864;28;20980;-75
2024/01/18 10:01:23;;;;;;;29.80;24.20;;;2.30;1.00;;;;;;5089812;28;20369;-75
2024/01/18 10:03:51;;;;;;;30.33;24.42;;;2.20;1.00;;;;;;5090684;28;20732;-75
2024/01/18 10:06:19;;;;;;;35.55;25.95;;;2.20;1.00;;;;;;5092286;28;20566;-75
2024/01/18 10:08:50;;;;;;;31.83;26.05;;;2.20;1.00;;;;;;5083741;28;20239;-75
2024/01/18 10:11:17;;;;;;;29.17;25.25;;;2.20;1.00;;;;;;5085454;28;20258;-75
2024/01/18 10:13:55;;;;;;;28.63;24.63;;;2.20;1.00;;;;;;5090457;28;20386;-76
2024/01/18 10:16:28;;;;;;;35.38;25.60;;;2.20;1.00;;;;;;5087578;28;20246;-75
2024/01/18 10:19:00;;;;;;;32.28;25.30;;;2.20;1.00;;;;;;5094383;28;20831;-78
2024/01/18 10:21:28;;;;;;;27.27;23.75;;;2.20;1.00;;;;;;5095403;28;20985;-79
2024/01/18 10:23:57;;;;;;;30.40;24.85;;;2.20;1.00;;;;;;5107809;27;20224;-78
2024/01/18 10:26:29;;;;;;;33.50;26.38;;;2.20;1.00;;;;;;5112824;27;20227;-80
2024/01/18 10:28:56;;;;;;;30.35;26.27;;;2.20;1.00;;;;;;5111523;27;21138;-76
2024/01/18 10:31:25;;;;;;;32.38;26.05;;;2.10;1.00;;;;;;5111954;27;20999;-77
2024/01/18 10:33:52;;;;;;;30.42;26.17;;;2.20;1.00;;;;;;5094136;28;20295;-76
2024/01/18 10:36:20;;;;;;;32.22;24.27;;;2.20;1.00;;;;;;5113108;27;20350;-79
2024/01/18 10:38:47;;;;;;;29.50;26.33;;;2.30;1.00;;;;;;5111988;27;20232;-79
2024/01/18 10:41:19;;;;;;;30.85;24.40;;;2.30;1.00;;;;;;5113969;27;20307;-80
2024/01/18 10:43:49;;;;;;;31.75;24.33;;;2.30;1.00;;;;;;5115218;27;20268;-79
2024/01/18 10:46:17;;;;;;;30.63;24.88;;;2.30;1.00;;;;;;5113004;27;20312;-79
2024/01/18 10:48:45;;;;;;;28.40;25.30;;;2.30;1.00;;;;;;5108469;28;20249;-78
2024/01/18 10:51:16;;;;;;;31.85;25.10;;;2.20;1.00;;;;;;5108784;28;20784;-80
2024/01/18 10:53:45;;;;;;;34.75;25.45;;;2.20;1.00;;;;;;5115029;27;20343;-77
2024/01/18 10:56:12;;;;;;;30.70;25.38;;;2.20;1.00;;;;;;5111903;28;20326;-78
2024/01/18 10:58:40;;;;;;;28.20;24.35;;;2.20;1.00;;;;;;5112275;27;20295;-79
2024/01/18 11:01:08;;;;;;;28.08;25.15;;;2.30;1.00;;;;;;5114665;27;20270;-78
2024/01/18 11:03:36;;;;;;;33.75;24.73;;;2.40;1.00;;;;;;5115687;28;20304;-79
2024/01/18 11:06:09;;;;;;;31.15;24.42;;;2.50;1.00;;;;;;5113407;27;20290;-80
2024/01/18 11:08:37;;;;;;;30.77;24.85;;;2.60;1.00;;;;;;5113304;27;20228;-80
2024/01/18 11:11:05;;;;;;;30.73;26.23;;;2.80;1.00;;;;;;5113118;27;20288;-80
2024/01/18 11:13:32;;;;;;;29.42;25.15;;;2.90;1.00;;;;;;5113577;27;20258;-80
2024/01/18 11:16:01;;;;;;;31.63;25.20;;;3.00;1.00;;;;;;5114850;27;20333;-78
2024/01/18 11:18:29;;;;;;;32.95;25.85;;;2.90;1.00;;;;;;5111486;27;20232;-80
2024/01/18 11:21:08;;;;;;;31.50;26.48;;;2.90;1.00;;;;;;5095949;27;20243;-80
2024/01/18 11:23:36;;;;;;;35.60;27.60;;;3.00;1.00;;;;;;5116071;27;20235;-80
2024/01/18 11:26:05;;;;;;;29.45;26.33;;;3.10;1.00;;;;;;5112648;28;20231;-80
2024/01/18 11:28:34;;;;;;;30.13;26.73;;;3.20;1.00;;;;;;5112749;27;20349;-74
2024/01/18 11:31:04;;;;;;;27.60;24.65;;;3.30;1.00;;;;;;5106078;28;20312;-76
2024/01/18 11:33:32;;;;;;;34.10;25.73;;;3.30;1.00;;;;;;5106632;27;20239;-75
2024/01/18 11:36:00;;;;;;;31.02;27.08;;;3.40;1.00;;;;;;5095899;27;20244;-77
2024/01/18 11:38:31;;;;;;;34.17;27.02;;;3.50;1.00;;;;;;5109890;27;21046;-74
2024/01/18 11:41:07;;;;;;;31.00;27.50;;;3.40;1.00;;;;;;5111230;27;20245;-74
2024/01/18 11:43:52;;;;;;;32.78;26.02;;;3.50;1.00;;;;;;5103211;27;20994;-75
2024/01/18 11:46:33;;;;;;;30.58;25.65;;;3.60;1.00;;;;;;5109253;28;20305;-74
2024/01/18 11:49:00;;;;;;;34.20;26.88;;;3.50;1.00;;;;;;5105838;27;20331;-75
2024/01/18 11:51:28;;;;;;;31.67;25.73;;;3.40;1.00;;;;;;5110734;27;20247;-75
2024/01/18 11:53:57;;;;;;;33.17;25.60;;;3.30;1.00;;;;;;5107701;28;20316;-74
2024/01/18 11:56:24;;;;;;;28.77;25.27;;;3.20;1.00;;;;;;5108400;27;20296;-75
2024/01/18 11:58:54;;;;;;;30.58;25.30;;;3.20;1.00;;;;;;5108257;28;20320;-75
2024/01/18 12:01:23;;;;;;;30.48;24.83;;;3.30;1.00;;;;;;5109896;28;20327;-76
2024/01/18 12:03:56;;;;;;;30.75;26.42;;;3.30;1.00;;;;;;5110986;28;20247;-75
2024/01/18 12:06:26;;;;;;;30.52;26.40;;;3.40;1.00;;;;;;5107789;28;20263;-75
2024/01/18 12:08:54;;;;;;;28.80;25.80;;;3.40;1.00;;;;;;5107492;28;20239;-75
2024/01/18 12:11:21;;;;;;;29.95;25.88;;;3.30;1.00;;;;;;5110357;28;20761;-75
2024/01/18 12:13:48;;;;;;;29.15;23.38;;;3.30;1.00;;;;;;5110665;28;20239;-74
2024/01/18 12:16:20;;;;;;;27.58;24.00;;;3.20;1.00;;;;;;5109439;28;20232;-76
2024/01/18 12:18:47;;;;;;;31.92;25.10;;;3.10;1.00;;;;;;5098537;27;20252;-75
2024/01/18 12:21:18;;;;;;;30.15;23.20;;;3.10;1.00;;;;;;5109942;28;20316;-77
2024/01/18 12:23:48;;;;;;;37.22;23.67;;;3.00;1.00;;;;;;5109664;28;20339;-75
2024/01/18 12:26:17;;;;;;;31.27;24.27;;;3.00;1.00;;;;;;5113845;28;20232;-74
2024/01/18 12:28:46;;;;;;;30.75;24.50;;;2.90;1.00;;;;;;5112209;28;20238;-74
2024/01/18 12:31:13;;;;;;;26.13;22.08;;;2.80;1.00;;;;;;5112473;28;20267;-74
2024/01/18 12:33:42;;;;;;;24.88;21.40;;;2.70;1.00;;;;;;5111293;28;20808;-75
2024/01/18 12:36:11;;;;;;;26.48;22.92;;;2.60;1.00;;;;;;5111642;28;20304;-74
2024/01/18 12:38:39;;;;;;;25.88;22.50;;;2.60;1.00;;;;;;5109892;28;20236;-71
2024/01/18 12:41:06;;;;;;;27.35;23.13;;;2.70;1.00;;;;;;5111613;28;20235;-72
2024/01/18 12:43:33;;;;;;;24.75;21.27;;;3.40;1.00;;;;;;5110051;28;20289;-74
2024/01/18 12:46:00;;;;;;;28.50;22.38;;;4.60;1.00;;;;;;5110428;28;20293;-74
2024/01/18 12:48:28;;;;;;;27.33;23.05;;;5.90;1.00;;;;;;5109824;28;21133;-70
2024/01/18 12:50:56;;;;;;;25.42;22.25;;;6.30;1.00;;;;;;5110392;28;20258;-71
2024/01/18 12:53:25;;;;;;;27.52;22.25;;;6.80;1.00;;;;;;5112912;28;20263;-71
2024/01/18 12:55:54;;;;;;;25.95;21.27;;;7.10;1.00;;;;;;5099749;28;20241;-72